Time;durP1;ratioP1;P1;durP2;ratioP2;P2;SDS_P1;SDS_P2;PMS_P1;PMS_P2;Temp;Humidity;BMP_temperature;BMP_pressure;BME280_temperature;BME280_humidity;BME280_pressure;Samples;Min_cycle;Max_cycle;Signal;HPM_P1;HPM_P2
2023/12/19 00:00:53;;;;;;;52.83;28.80;;;;;;;;;;10395898;28;20158;-75
2023/12/19 00:05:54;;;;;;;55.25;30.23;;;;;;;;;;10389566;28;20291;-76
2023/12/19 00:10:54;;;;;;;56.70;29.48;;;;;;;;;;10388074;28;20029;-75
2023/12/19 00:15:54;;;;;;;48.83;26.85;;;;;;;;;;10389683;28;20025;-75
2023/12/19 00:20:54;;;;;;;60.63;29.65;;;;;;;;;;10396109;28;20107;-73
2023/12/19 00:25:55;;;;;;;44.65;21.30;;;;;;;;;;10394383;28;20138;-74
2023/12/19 00:30:55;;;;;;;45.28;21.73;;;;;;;;;;10376119;28;20021;-74
2023/12/19 00:35:55;;;;;;;46.75;24.80;;;;;;;;;;10395018;28;20518;-73
2023/12/19 00:40:55;;;;;;;52.33;25.45;;;;;;;;;;10377557;28;20025;-73
2023/12/19 00:45:55;;;;;;;45.25;23.15;;;;;;;;;;10394923;28;20026;-74
2023/12/19 00:50:56;;;;;;;51.17;25.95;;;;;;;;;;10377293;28;20022;-74
2023/12/19 00:55:56;;;;;;;55.50;26.58;;;;;;;;;;10393680;28;20041;-76
2023/12/19 01:00:56;;;;;;;51.33;26.25;;;;;;;;;;10402374;28;20050;-75
2023/12/19 01:05:57;;;;;;;48.80;28.13;;;;;;;;;;10399672;28;20566;-74
2023/12/19 01:10:57;;;;;;;47.75;27.42;;;;;;;;;;10403567;28;20029;-76
2023/12/19 01:15:57;;;;;;;50.42;27.08;;;;;;;;;;10396206;28;20120;-75
2023/12/19 01:20:58;;;;;;;40.38;24.02;;;;;;;;;;10386693;28;20060;-75
2023/12/19 01:25:58;;;;;;;47.50;23.50;;;;;;;;;;10383628;28;20018;-77
2023/12/19 01:30:58;;;;;;;47.83;24.00;;;;;;;;;;10402312;28;20026;-75
2023/12/19 01:35:58;;;;;;;40.63;23.25;;;;;;;;;;10404065;28;20518;-78
2023/12/19 01:40:59;;;;;;;42.38;22.80;;;;;;;;;;10407252;28;20025;-75
2023/12/19 01:45:59;;;;;;;43.13;24.20;;;;;;;;;;10386400;28;20027;-79
2023/12/19 01:50:59;;;;;;;47.03;25.13;;;;;;;;;;10397581;28;20017;-75
2023/12/19 01:56:00;;;;;;;48.47;24.02;;;;;;;;;;10402472;28;20015;-75
2023/12/19 02:01:00;;;;;;;44.05;25.10;;;;;;;;;;10386585;28;20498;-75
2023/12/19 02:06:02;;;;;;;41.90;22.98;;;;;;;;;;10404436;28;20435;-75
2023/12/19 02:11:02;;;;;;;51.78;24.52;;;;;;;;;;10384743;28;20079;-75
2023/12/19 02:16:03;;;;;;;47.83;25.08;;;;;;;;;;10398724;28;20098;-75
2023/12/19 02:21:04;;;;;;;51.70;25.52;;;;;;;;;;10402117;28;20025;-74
2023/12/19 02:26:04;;;;;;;48.60;25.90;;;;;;;;;;10382790;28;20037;-80
2023/12/19 02:31:04;;;;;;;49.23;27.97;;;;;;;;;;10385570;28;20028;-78
2023/12/19 02:36:05;;;;;;;44.40;25.45;;;;;;;;;;10400185;28;20529;-75
2023/12/19 02:41:07;;;;;;;45.33;24.15;;;;;;;;;;10401714;28;20413;-74
2023/12/19 02:46:07;;;;;;;53.17;28.00;;;;;;;;;;10381523;28;20427;-75
2023/12/19 02:51:08;;;;;;;47.90;25.52;;;;;;;;;;10407486;28;20029;-74
2023/12/19 02:56:08;;;;;;;48.83;25.33;;;;;;;;;;10380727;28;20029;-74
2023/12/19 03:01:08;;;;;;;50.90;26.48;;;;;;;;;;10381654;28;20053;-74
2023/12/19 03:06:09;;;;;;;45.50;26.65;;;;;;;;;;10385230;28;20021;-75
2023/12/19 03:11:09;;;;;;;62.90;30.70;;;;;;;;;;10398659;28;20551;-78
2023/12/19 03:16:09;;;;;;;75.78;39.47;;;;;;;;;;10381560;28;20120;-74
2023/12/19 03:21:10;;;;;;;82.50;44.05;;;;;;;;;;10383859;28;20041;-77
2023/12/19 03:26:10;;;;;;;59.25;32.75;;;;;;;;;;10387648;28;20082;-73
2023/12/19 03:31:10;;;;;;;60.00;31.98;;;;;;;;;;10400626;28;20566;-73
2023/12/19 03:36:11;;;;;;;68.95;34.80;;;;;;;;;;10380497;28;20029;-74
2023/12/19 03:41:11;;;;;;;72.07;32.22;;;;;;;;;;10395468;28;20037;-79
2023/12/19 03:46:11;;;;;;;59.83;30.88;;;;;;;;;;10386158;28;20432;-74
2023/12/19 03:51:11;;;;;;;47.70;22.85;;;;;;;;;;10385823;28;20095;-75
2023/12/19 03:56:12;;;;;;;49.38;28.48;;;;;;;;;;10402763;28;20063;-74
2023/12/19 04:01:12;;;;;;;29.65;15.13;;;;;;;;;;10398230;28;20087;-74
2023/12/19 04:06:13;;;;;;;14.20;8.38;;;;;;;;;;10395868;28;20420;-74
2023/12/19 04:11:15;;;;;;;12.05;7.47;;;;;;;;;;10397343;28;20036;-77
2023/12/19 04:16:16;;;;;;;14.80;8.48;;;;;;;;;;10375046;28;20407;-78
2023/12/19 04:21:16;;;;;;;12.68;8.27;;;;;;;;;;10379205;28;20029;-77
2023/12/19 04:26:19;;;;;;;12.32;8.52;;;;;;;;;;10397677;28;20029;-75
2023/12/19 04:31:20;;;;;;;13.82;7.20;;;;;;;;;;10395109;28;20036;-74
2023/12/19 04:36:20;;;;;;;18.75;10.63;;;;;;;;;;10397284;28;20514;-76
2023/12/19 04:41:20;;;;;;;22.45;12.32;;;;;;;;;;10403869;28;20105;-81
2023/12/19 04:46:20;;;;;;;22.05;10.40;;;;;;;;;;10391977;28;20025;-81
2023/12/19 04:51:22;;;;;;;33.45;18.08;;;;;;;;;;10387520;28;20553;-74
2023/12/19 04:56:22;;;;;;;39.50;19.50;;;;;;;;;;10398969;28;20717;-82
2023/12/19 05:01:22;;;;;;;33.47;19.35;;;;;;;;;;10386263;28;20041;-75
2023/12/19 05:06:22;;;;;;;73.25;22.02;;;;;;;;;;10386263;28;21240;-74
2023/12/19 05:11:23;;;;;;;35.17;17.58;;;;;;;;;;10404962;28;20039;-77
2023/12/19 05:16:23;;;;;;;36.95;18.58;;;;;;;;;;10403611;28;20037;-74
2023/12/19 05:21:24;;;;;;;44.05;22.90;;;;;;;;;;10399053;28;20493;-76
2023/12/19 05:26:24;;;;;;;42.08;20.52;;;;;;;;;;10402239;28;20014;-77
2023/12/19 05:31:24;;;;;;;33.60;18.50;;;;;;;;;;10395523;28;20025;-78
2023/12/19 05:36:24;;;;;;;37.50;21.48;;;;;;;;;;10378539;28;20431;-78
2023/12/19 05:41:25;;;;;;;49.22;26.35;;;;;;;;;;10366908;28;20092;-76
2023/12/19 05:46:25;;;;;;;46.35;23.25;;;;;;;;;;10375735;28;20546;-76
2023/12/19 05:51:25;;;;;;;51.10;24.17;;;;;;;;;;10361680;28;20025;-81
2023/12/19 05:56:25;;;;;;;58.17;28.17;;;;;;;;;;10379071;28;20041;-77
2023/12/19 06:01:26;;;;;;;56.25;25.35;;;;;;;;;;10389635;28;20042;-77
2023/12/19 06:06:26;;;;;;;66.35;33.17;;;;;;;;;;10370679;28;20060;-77
2023/12/19 06:11:26;;;;;;;59.55;33.83;;;;;;;;;;10373263;28;20330;-78
2023/12/19 06:16:27;;;;;;;61.70;31.40;;;;;;;;;;10384246;28;20020;-74
2023/12/19 06:21:27;;;;;;;59.17;32.88;;;;;;;;;;10373795;28;20467;-75
2023/12/19 06:26:27;;;;;;;75.53;36.58;;;;;;;;;;10367112;28;20746;-77
2023/12/19 06:31:28;;;;;;;71.57;35.70;;;;;;;;;;10367249;28;20025;-76
2023/12/19 06:36:31;;;;;;;86.63;37.70;;;;;;;;;;10368980;28;20363;-75
2023/12/19 06:41:31;;;;;;;70.10;34.67;;;;;;;;;;10392847;28;20049;-75
2023/12/19 06:46:31;;;;;;;68.00;35.78;;;;;;;;;;10381925;28;20104;-76
2023/12/19 06:51:32;;;;;;;75.75;39.10;;;;;;;;;;10372858;28;20080;-75
2023/12/19 06:56:32;;;;;;;76.32;37.80;;;;;;;;;;10363363;28;20013;-76
2023/12/19 07:01:32;;;;;;;85.47;43.92;;;;;;;;;;10374319;28;20416;-75
2023/12/19 07:06:33;;;;;;;103.90;50.13;;;;;;;;;;10379950;28;20030;-77
2023/12/19 07:11:33;;;;;;;92.38;44.90;;;;;;;;;;10382044;28;20014;-75
2023/12/19 07:16:33;;;;;;;65.47;32.65;;;;;;;;;;10371210;28;20025;-75
2023/12/19 07:21:36;;;;;;;64.68;34.05;;;;;;;;;;10367175;28;20021;-82
2023/12/19 07:26:36;;;;;;;53.60;28.92;;;;;;;;;;10375379;28;20395;-75
2023/12/19 07:31:37;;;;;;;54.53;28.00;;;;;;;;;;10378527;28;20382;-77
2023/12/19 07:36:38;;;;;;;38.75;21.60;;;;;;;;;;10370740;28;20022;-76
2023/12/19 07:41:38;;;;;;;29.17;15.13;;;;;;;;;;10385212;28;20022;-80
2023/12/19 07:46:39;;;;;;;32.63;17.50;;;;;;;;;;10363732;28;20036;-76
2023/12/19 07:51:40;;;;;;;26.60;15.55;;;;;;;;;;10385384;28;20017;-81
2023/12/19 07:56:42;;;;;;;52.47;27.30;;;;;;;;;;10382102;28;20138;-74
2023/12/19 08:01:46;;;;;;;58.42;29.50;;;;;;;;;;10361457;28;20048;-75
2023/12/19 08:06:47;;;;;;;74.32;33.55;;;;;;;;;;10380646;28;20061;-76
2023/12/19 08:11:48;;;;;;;65.88;32.72;;;;;;;;;;10367867;28;20041;-75
2023/12/19 08:16:48;;;;;;;54.85;28.23;;;;;;;;;;10386393;28;20026;-76
2023/12/19 08:21:52;;;;;;;45.15;24.13;;;;;;;;;;10385432;28;20367;-75
2023/12/19 08:26:52;;;;;;;74.63;42.10;;;;;;;;;;10376404;28;20033;-72
2023/12/19 08:31:52;;;;;;;88.30;45.13;;;;;;;;;;10352541;28;20104;-76
2023/12/19 08:36:53;;;;;;;84.72;44.13;;;;;;;;;;10375841;28;20811;-74
2023/12/19 08:41:53;;;;;;;88.85;43.22;;;;;;;;;;10374796;28;20347;-78
2023/12/19 08:46:53;;;;;;;89.78;40.35;;;;;;;;;;10365030;28;20028;-77
2023/12/19 08:51:53;;;;;;;74.38;36.17;;;;;;;;;;10372625;28;20092;-75
2023/12/19 08:56:54;;;;;;;81.93;37.65;;;;;;;;;;10385319;28;20022;-80
2023/12/19 09:01:55;;;;;;;74.50;35.15;;;;;;;;;;10373769;28;20174;-77
2023/12/19 09:06:55;;;;;;;78.95;35.67;;;;;;;;;;10376122;28;20028;-78
2023/12/19 09:11:55;;;;;;;74.63;36.03;;;;;;;;;;10381070;28;20407;-77
2023/12/19 09:16:55;;;;;;;77.63;36.65;;;;;;;;;;10386507;28;20039;-77
2023/12/19 09:21:57;;;;;;;72.57;32.83;;;;;;;;;;10365157;28;20020;-81
2023/12/19 09:26:57;;;;;;;66.15;35.92;;;;;;;;;;10366003;28;20013;-76
2023/12/19 09:32:00;;;;;;;73.00;36.08;;;;;;;;;;10383248;28;20513;-78
2023/12/19 09:37:00;;;;;;;70.45;32.53;;;;;;;;;;10397625;28;20020;-78
2023/12/19 09:42:01;;;;;;;112.20;72.25;;;;;;;;;;10384278;28;20380;-76
2023/12/19 09:47:02;;;;;;;75.18;35.08;;;;;;;;;;10391379;28;20017;-75
2023/12/19 09:52:03;;;;;;;70.85;34.92;;;;;;;;;;10389024;28;20017;-75
2023/12/19 09:57:03;;;;;;;67.93;31.73;;;;;;;;;;10361197;28;20448;-79
2023/12/19 10:02:04;;;;;;;78.55;31.27;;;;;;;;;;10358949;28;20293;-77
2023/12/19 10:07:05;;;;;;;63.83;30.02;;;;;;;;;;10383216;28;20113;-75
2023/12/19 10:12:05;;;;;;;61.70;28.17;;;;;;;;;;10374314;28;20026;-75
2023/12/19 10:17:11;;;;;;;60.17;28.98;;;;;;;;;;10379970;28;20021;-78
2023/12/19 10:22:13;;;;;;;61.42;28.42;;;;;;;;;;10390094;28;20522;-76
2023/12/19 10:27:13;;;;;;;50.47;28.08;;;;;;;;;;10372883;28;20040;-77
2023/12/19 10:32:17;;;;;;;55.83;29.27;;;;;;;;;;10384641;28;20021;-82
2023/12/19 10:37:20;;;;;;;62.28;28.75;;;;;;;;;;10366721;28;20025;-76
2023/12/19 10:42:21;;;;;;;49.13;28.42;;;;;;;;;;10386840;28;20029;-76
2023/12/19 10:47:21;;;;;;;49.45;26.50;;;;;;;;;;10383083;28;20022;-76
2023/12/19 10:52:22;;;;;;;48.05;26.73;;;;;;;;;;10380224;28;20110;-78
2023/12/19 10:57:25;;;;;;;51.40;28.35;;;;;;;;;;10388322;28;20512;-78
2023/12/19 11:02:34;;;;;;;261.48;239.75;;;;;;;;;;10376242;28;20107;-76
2023/12/19 11:07:35;;;;;;;53.08;29.00;;;;;;;;;;10371182;28;20121;-75
2023/12/19 11:12:36;;;;;;;60.15;38.53;;;;;;;;;;10383988;28;20035;-77
2023/12/19 11:17:42;;;;;;;869.13;787.53;;;;;;;;;;10370106;28;20021;-77
2023/12/19 11:22:49;;;;;;;48.93;28.33;;;;;;;;;;10379402;28;20416;-78
2023/12/19 11:27:54;;;;;;;883.13;788.92;;;;;;;;;;10368922;28;20017;-78
2023/12/19 11:32:54;;;;;;;387.75;349.95;;;;;;;;;;10380619;28;20121;-78
2023/12/19 11:38:12;;;;;;;37.45;21.67;;;;;;;;;;10378241;28;20079;-76
2023/12/19 11:43:28;;;;;;;37.13;21.45;;;;;;;;;;10361711;28;20479;-77
2023/12/19 11:48:39;;;;;;;40.33;21.27;;;;;;;;;;10366759;28;20037;-77
2023/12/19 11:53:40;;;;;;;40.72;22.10;;;;;;;;;;10374318;28;20017;-79
2023/12/19 11:58:48;;;;;;;733.20;663.15;;;;;;;;;;10364702;28;20073;-73
2023/12/19 12:03:49;;;;;;;735.80;647.15;;;;;;;;;;10359625;28;20467;-78
2023/12/19 12:08:53;;;;;;;47.30;25.17;;;;;;;;;;10369241;28;20026;-73
2023/12/19 12:14:01;;;;;;;47.30;24.73;;;;;;;;;;10362506;28;20029;-76
2023/12/19 12:19:01;;;;;;;;;;;;;;;;;;10385218;28;20022;-82
2023/12/19 12:24:01;;;;;;;55.80;29.05;;;;;;;;;;10376918;28;20838;-73
2023/12/19 12:29:04;;;;;;;61.38;31.70;;;;;;;;;;10392374;28;20025;-74
2023/12/19 12:34:05;;;;;;;59.63;30.13;;;;;;;;;;10373104;28;20018;-76
2023/12/19 12:39:05;;;;;;;53.67;28.75;;;;;;;;;;10379231;28;20505;-75
2023/12/19 12:44:10;;;;;;;48.47;25.98;;;;;;;;;;10370969;28;20068;-79
2023/12/19 12:49:15;;;;;;;55.70;29.60;;;;;;;;;;10381166;28;20459;-78
2023/12/19 12:54:16;;;;;;;77.28;34.60;;;;;;;;;;10371933;28;20022;-85
2023/12/19 12:59:17;;;;;;;66.75;30.05;;;;;;;;;;10383515;28;20029;-75
2023/12/19 13:04:18;;;;;;;61.75;31.50;;;;;;;;;;10386392;28;20050;-74
2023/12/19 13:09:21;;;;;;;64.77;33.10;;;;;;;;;;10387036;28;20100;-77
2023/12/19 13:14:21;;;;;;;69.50;34.88;;;;;;;;;;10376327;28;20762;-78
2023/12/19 13:19:22;;;;;;;72.97;34.63;;;;;;;;;;10365457;28;20018;-76
2023/12/19 13:24:23;;;;;;;69.53;35.25;;;;;;;;;;10377515;28;20064;-80
2023/12/19 13:29:23;;;;;;;63.65;33.70;;;;;;;;;;10371137;28;20142;-81
2023/12/19 13:34:25;;;;;;;71.07;34.13;;;;;;;;;;10388081;28;20083;-75
2023/12/19 13:39:25;;;;;;;66.88;33.83;;;;;;;;;;10379672;28;20021;-76
2023/12/19 13:44:26;;;;;;;80.00;36.13;;;;;;;;;;10368704;28;20496;-78
2023/12/19 13:49:27;;;;;;;84.82;38.22;;;;;;;;;;10363936;28;20128;-80
2023/12/19 13:54:27;;;;;;;64.13;32.85;;;;;;;;;;10372268;28;20030;-78
2023/12/19 13:59:29;;;;;;;70.25;33.58;;;;;;;;;;10393293;28;20040;-78
2023/12/19 14:04:30;;;;;;;73.70;36.45;;;;;;;;;;10376131;28;20045;-78
2023/12/19 14:09:31;;;;;;;74.50;38.17;;;;;;;;;;10375546;28;20022;-76
2023/12/19 14:14:31;;;;;;;79.18;39.17;;;;;;;;;;10377424;28;20018;-75
2023/12/19 14:19:35;;;;;;;95.80;41.63;;;;;;;;;;10372226;28;20549;-79
2023/12/19 14:24:36;;;;;;;75.32;37.88;;;;;;;;;;10377486;28;20013;-75
2023/12/19 14:29:37;;;;;;;85.80;41.65;;;;;;;;;;10367308;28;20387;-77
2023/12/19 14:34:39;;;;;;;75.50;39.05;;;;;;;;;;10367331;28;20026;-74
2023/12/19 14:39:40;;;;;;;80.97;38.88;;;;;;;;;;10367679;28;20087;-75
2023/12/19 14:44:40;;;;;;;71.13;38.28;;;;;;;;;;10364972;28;20079;-83
2023/12/19 14:49:41;;;;;;;71.93;38.75;;;;;;;;;;10376198;28;20013;-76
2023/12/19 14:54:42;;;;;;;78.68;38.97;;;;;;;;;;10368870;28;20021;-78
2023/12/19 14:59:42;;;;;;;72.18;37.65;;;;;;;;;;10370265;28;20022;-74
2023/12/19 15:04:42;;;;;;;63.37;34.70;;;;;;;;;;10387783;28;20038;-78
2023/12/19 15:09:42;;;;;;;77.90;39.35;;;;;;;;;;10374608;28;20032;-80
2023/12/19 15:14:43;;;;;;;78.70;38.20;;;;;;;;;;10365788;28;20060;-82
2023/12/19 15:19:43;;;;;;;71.32;32.92;;;;;;;;;;10369448;28;20052;-78
2023/12/19 15:24:43;;;;;;;67.80;34.88;;;;;;;;;;10383241;28;20484;-76
2023/12/19 15:29:43;;;;;;;65.75;32.17;;;;;;;;;;10342627;28;20024;-74
2023/12/19 15:34:44;;;;;;;70.88;36.92;;;;;;;;;;10390131;28;20365;-74
2023/12/19 15:39:44;;;;;;;75.07;36.88;;;;;;;;;;10370965;28;20009;-75
2023/12/19 15:44:44;;;;;;;64.50;32.38;;;;;;;;;;10358346;28;20013;-75
2023/12/19 15:49:44;;;;;;;66.32;33.45;;;;;;;;;;10377924;28;20018;-74
2023/12/19 15:54:45;;;;;;;74.47;34.70;;;;;;;;;;10381077;28;20025;-78
2023/12/19 15:59:46;;;;;;;75.75;35.35;;;;;;;;;;10389382;28;20006;-76
2023/12/19 16:04:46;;;;;;;76.72;34.47;;;;;;;;;;10380516;28;20057;-75
2023/12/19 16:09:46;;;;;;;49.53;25.60;;;;;;;;;;10382186;28;20641;-77
2023/12/19 16:14:47;;;;;;;40.90;20.77;;;;;;;;;;10364884;28;20018;-77
2023/12/19 16:19:47;;;;;;;58.33;30.30;;;;;;;;;;10381128;28;20036;-77
2023/12/19 16:24:52;;;;;;;63.37;31.77;;;;;;;;;;10373178;28;20013;-78
2023/12/19 16:29:52;;;;;;;36.92;20.08;;;;;;;;;;10371398;28;20018;-76
2023/12/19 16:34:52;;;;;;;34.97;15.85;;;;;;;;;;10391875;28;20017;-74
2023/12/19 16:39:53;;;;;;;36.95;17.92;;;;;;;;;;10368238;28;20615;-78
2023/12/19 16:44:53;;;;;;;28.40;13.57;;;;;;;;;;10393275;28;20013;-74
2023/12/19 16:49:56;;;;;;;44.60;20.55;;;;;;;;;;10368758;28;20018;-75
2023/12/19 16:54:56;;;;;;;49.17;21.67;;;;;;;;;;10371032;28;20444;-74
2023/12/19 16:59:56;;;;;;;57.25;25.25;;;;;;;;;;10383297;28;20029;-76
2023/12/19 17:04:57;;;;;;;43.58;24.17;;;;;;;;;;10306918;28;20042;-73
2023/12/19 17:09:57;;;;;;;63.38;27.55;;;;;;;;;;10308815;28;20459;-75
2023/12/19 17:14:57;;;;;;;59.17;29.42;;;;;;;;;;10319205;28;20446;-75
2023/12/19 17:19:57;;;;;;;68.13;30.65;;;;;;;;;;10301171;28;20141;-75
2023/12/19 17:24:58;;;;;;;55.90;25.30;;;;;;;;;;10304990;28;20027;-75
2023/12/19 17:29:58;;;;;;;60.92;25.90;;;;;;;;;;10302184;28;20023;-75
2023/12/19 17:34:58;;;;;;;47.88;23.13;;;;;;;;;;10304609;28;20104;-75
2023/12/19 17:39:58;;;;;;;47.55;22.85;;;;;;;;;;10299110;28;20373;-74
2023/12/19 17:44:59;;;;;;;52.55;25.05;;;;;;;;;;10323162;28;20038;-76
2023/12/19 17:49:59;;;;;;;32.83;16.73;;;;;;;;;;10307141;28;20049;-77
2023/12/19 17:55:00;;;;;;;26.42;13.40;;;;;;;;;;10303015;28;20077;-75
2023/12/19 18:00:01;;;;;;;27.40;16.55;;;;;;;;;;10313245;28;20033;-82
2023/12/19 18:05:02;;;;;;;26.73;15.23;;;;;;;;;;10310978;28;20050;-74
2023/12/19 18:10:02;;;;;;;24.33;14.02;;;;;;;;;;10293674;28;20457;-75
2023/12/19 18:15:05;;;;;;;24.37;10.63;;;;;;;;;;10310348;28;20076;-76
2023/12/19 18:20:06;;;;;;;21.02;11.05;;;;;;;;;;10298411;28;20026;-76
2023/12/19 18:25:06;;;;;;;22.33;10.65;;;;;;;;;;10304740;28;20027;-75
2023/12/19 18:30:07;;;;;;;23.15;11.15;;;;;;;;;;10321167;28;20024;-76
2023/12/19 18:35:07;;;;;;;23.58;10.98;;;;;;;;;;10327656;28;20022;-74
2023/12/19 18:40:08;;;;;;;24.50;11.43;;;;;;;;;;10308475;28;20025;-76
2023/12/19 18:45:08;;;;;;;29.42;13.95;;;;;;;;;;10319587;28;20374;-78
2023/12/19 18:50:08;;;;;;;33.35;13.80;;;;;;;;;;10297337;28;20054;-75
2023/12/19 18:55:09;;;;;;;31.67;15.77;;;;;;;;;;10308178;28;20248;-75
2023/12/19 19:00:10;;;;;;;24.47;13.77;;;;;;;;;;10322948;28;20023;-76
2023/12/19 19:05:11;;;;;;;27.88;14.70;;;;;;;;;;10327477;28;20128;-76
2023/12/19 19:10:13;;;;;;;28.75;14.20;;;;;;;;;;10301242;28;20076;-77
2023/12/19 19:15:14;;;;;;;33.47;16.38;;;;;;;;;;10325669;28;20115;-78
2023/12/19 19:20:36;;;;;;;32.75;16.67;;;;;;;;;;10328593;28;20019;-74
2023/12/19 19:25:37;;;;;;;30.08;14.63;;;;;;;;;;10305008;28;20114;-76
2023/12/19 19:30:38;;;;;;;28.80;13.18;;;;;;;;;;10317751;28;20041;-76
2023/12/19 19:35:38;;;;;;;19.05;10.63;;;;;;;;;;10313546;28;20580;-76
2023/12/19 19:40:42;;;;;;;27.38;12.60;;;;;;;;;;10304494;28;20033;-74
2023/12/19 19:45:42;;;;;;;26.27;12.35;;;;;;;;;;10304433;28;20370;-76
2023/12/19 19:50:42;;;;;;;30.92;14.05;;;;;;;;;;10320236;28;20026;-77
2023/12/19 19:55:44;;;;;;;23.45;12.48;;;;;;;;;;10316794;28;20064;-75
2023/12/19 20:00:44;;;;;;;24.40;11.67;;;;;;;;;;10319035;28;20023;-76
2023/12/19 20:05:44;;;;;;;30.98;14.55;;;;;;;;;;10383311;28;20806;-77
2023/12/19 20:10:44;;;;;;;31.95;16.98;;;;;;;;;;10369509;28;20040;-76
2023/12/19 20:15:45;;;;;;;28.52;15.40;;;;;;;;;;10377489;28;20023;-74
2023/12/19 20:20:45;;;;;;;35.42;16.40;;;;;;;;;;10361694;28;20079;-74
2023/12/19 20:25:45;;;;;;;29.50;15.13;;;;;;;;;;10387636;28;20024;-76
2023/12/19 20:30:46;;;;;;;32.72;15.90;;;;;;;;;;10366952;28;20619;-76
2023/12/19 20:35:48;;;;;;;39.60;20.27;;;;;;;;;;10371526;28;20112;-76
2023/12/19 20:40:48;;;;;;;29.83;14.55;;;;;;;;;;10361272;28;20307;-81
2023/12/19 20:45:49;;;;;;;29.33;14.68;;;;;;;;;;10366305;28;20112;-77
2023/12/19 20:50:49;;;;;;;22.63;13.05;;;;;;;;;;10370343;28;20028;-75
2023/12/19 20:55:49;;;;;;;18.83;10.97;;;;;;;;;;10381786;28;20476;-75
2023/12/19 21:00:50;;;;;;;14.20;7.93;;;;;;;;;;10382409;28;20554;-75
2023/12/19 21:05:50;;;;;;;19.50;9.93;;;;;;;;;;10366300;28;20049;-76
2023/12/19 21:10:50;;;;;;;19.17;10.95;;;;;;;;;;10379618;28;20317;-74
2023/12/19 21:15:51;;;;;;;16.58;9.95;;;;;;;;;;10371602;28;20029;-76
2023/12/19 21:20:51;;;;;;;20.43;10.23;;;;;;;;;;10388272;28;20036;-76
2023/12/19 21:25:51;;;;;;;14.27;8.73;;;;;;;;;;10379231;28;20268;-77
2023/12/19 21:30:52;;;;;;;21.43;9.43;;;;;;;;;;10388255;28;20021;-83
2023/12/19 21:35:52;;;;;;;19.20;11.93;;;;;;;;;;10381187;28;20411;-75
2023/12/19 21:40:53;;;;;;;28.73;14.18;;;;;;;;;;10393648;28;20065;-76
2023/12/19 21:45:53;;;;;;;34.53;18.52;;;;;;;;;;10378603;28;20031;-76
2023/12/19 21:50:53;;;;;;;50.85;21.70;;;;;;;;;;10389232;28;20018;-73
2023/12/19 21:55:53;;;;;;;42.47;22.48;;;;;;;;;;10389445;28;20024;-77
2023/12/19 22:00:54;;;;;;;52.00;27.43;;;;;;;;;;10361327;28;20021;-75
2023/12/19 22:05:54;;;;;;;41.60;23.25;;;;;;;;;;10377920;28;20026;-78
2023/12/19 22:10:56;;;;;;;38.03;20.42;;;;;;;;;;10374832;28;20467;-75
2023/12/19 22:15:56;;;;;;;31.45;15.93;;;;;;;;;;10390981;28;20017;-75
2023/12/19 22:20:56;;;;;;;19.63;10.77;;;;;;;;;;10378448;28;20018;-78
2023/12/19 22:25:57;;;;;;;19.00;9.50;;;;;;;;;;10386245;28;20021;-75
2023/12/19 22:30:57;;;;;;;19.63;9.50;;;;;;;;;;10370036;28;20029;-76
2023/12/19 22:35:57;;;;;;;21.52;9.93;;;;;;;;;;10399513;28;20112;-81
2023/12/19 22:40:58;;;;;;;17.38;9.45;;;;;;;;;;10367675;28;20017;-80
2023/12/19 22:45:59;;;;;;;24.80;10.00;;;;;;;;;;10380677;28;20022;-75
2023/12/19 22:50:59;;;;;;;24.33;11.68;;;;;;;;;;10376201;28;20451;-76
2023/12/19 22:55:59;;;;;;;20.05;10.43;;;;;;;;;;10387394;28;20029;-75
2023/12/19 23:00:59;;;;;;;20.98;10.48;;;;;;;;;;10401513;28;20111;-74
2023/12/19 23:06:00;;;;;;;22.75;10.68;;;;;;;;;;10402508;28;20029;-74
2023/12/19 23:11:00;;;;;;;20.02;11.93;;;;;;;;;;10404211;28;20025;-74
2023/12/19 23:16:00;;;;;;;21.67;10.18;;;;;;;;;;10402383;28;20463;-74
2023/12/19 23:21:02;;;;;;;27.58;13.80;;;;;;;;;;10385810;28;20021;-75
2023/12/19 23:26:02;;;;;;;21.45;12.57;;;;;;;;;;10400887;28;20511;-75
2023/12/19 23:31:02;;;;;;;23.23;11.88;;;;;;;;;;10400555;28;20025;-76
2023/12/19 23:36:03;;;;;;;22.67;11.20;;;;;;;;;;10401784;28;20025;-74
2023/12/19 23:41:03;;;;;;;17.47;9.40;;;;;;;;;;10400877;28;20026;-75
2023/12/19 23:46:03;;;;;;;19.13;10.43;;;;;;;;;;10401991;28;20347;-76
2023/12/19 23:51:03;;;;;;;26.67;12.95;;;;;;;;;;10400999;28;20056;-73
2023/12/19 23:56:04;;;;;;;28.73;14.67;;;;;;;;;;10384333;28;20416;-74
